sensor_id;sensor_type;location;lat;lon;timestamp;pressure;altitude;pressure_sealevel;temperature;humidity
28628;BME280;15815;46.760;19.604;2023-08-31T00:01:50;99637.97;;;17.69;97.26
28628;BME280;15815;46.760;19.604;2023-08-31T00:04:16;99655.19;;;17.75;96.55
28628;BME280;15815;46.760;19.604;2023-08-31T00:06:41;99647.31;;;17.79;98.70
28628;BME280;15815;46.760;19.604;2023-08-31T00:09:10;99641.13;;;17.71;98.36
28628;BME280;15815;46.760;19.604;2023-08-31T00:11:36;99636.19;;;17.63;94.76
28628;BME280;15815;46.760;19.604;2023-08-31T00:14:02;99635.88;;;17.60;94.72
28628;BME280;15815;46.760;19.604;2023-08-31T00:16:28;99641.88;;;17.63;93.34
28628;BME280;15815;46.760;19.604;2023-08-31T00:18:58;99643.25;;;17.49;93.19
28628;BME280;15815;46.760;19.604;2023-08-31T00:21:23;99652.41;;;17.53;95.25
28628;BME280;15815;46.760;19.604;2023-08-31T00:23:50;99650.72;;;17.55;94.72
28628;BME280;15815;46.760;19.604;2023-08-31T00:26:16;99643.09;;;17.52;94.61
28628;BME280;15815;46.760;19.604;2023-08-31T00:28:41;99653.34;;;17.50;93.22
28628;BME280;15815;46.760;19.604;2023-08-31T00:31:07;99638.69;;;17.51;95.19
28628;BME280;15815;46.760;19.604;2023-08-31T00:33:32;99643.56;;;17.51;95.71
28628;BME280;15815;46.760;19.604;2023-08-31T00:36:01;99657.03;;;17.59;95.21
28628;BME280;15815;46.760;19.604;2023-08-31T00:38:27;99655.44;;;17.58;93.85
28628;BME280;15815;46.760;19.604;2023-08-31T00:40:53;99661.53;;;17.48;93.44
28628;BME280;15815;46.760;19.604;2023-08-31T00:43:18;99666.28;;;17.51;93.84
28628;BME280;15815;46.760;19.604;2023-08-31T00:45:45;99663.97;;;17.58;98.25
28628;BME280;15815;46.760;19.604;2023-08-31T00:48:12;99659.03;;;17.50;95.21
28628;BME280;15815;46.760;19.604;2023-08-31T00:50:40;99652.72;;;17.46;97.21
28628;BME280;15815;46.760;19.604;2023-08-31T00:53:05;99663.91;;;17.49;96.45
28628;BME280;15815;46.760;19.604;2023-08-31T00:55:32;99658.91;;;17.53;96.17
28628;BME280;15815;46.760;19.604;2023-08-31T00:58:16;99663.03;;;17.61;97.51
28628;BME280;15815;46.760;19.604;2023-08-31T01:01:06;99665.38;;;17.54;95.14
28628;BME280;15815;46.760;19.604;2023-08-31T01:03:52;99664.44;;;17.57;97.14
28628;BME280;15815;46.760;19.604;2023-08-31T01:09:26;99667.44;;;17.53;95.86
28628;BME280;15815;46.760;19.604;2023-08-31T01:12:02;99666.63;;;17.53;95.09
28628;BME280;15815;46.760;19.604;2023-08-31T01:14:54;99675.41;;;17.68;99.80
28628;BME280;15815;46.760;19.604;2023-08-31T01:17:23;99662.25;;;17.61;98.87
28628;BME280;15815;46.760;19.604;2023-08-31T01:19:51;99676.31;;;17.65;96.21
28628;BME280;15815;46.760;19.604;2023-08-31T01:22:43;99680.69;;;17.56;95.34
28628;BME280;15815;46.760;19.604;2023-08-31T01:25:09;99674.66;;;17.45;96.17
28628;BME280;15815;46.760;19.604;2023-08-31T01:27:36;99689.97;;;17.48;94.76
28628;BME280;15815;46.760;19.604;2023-08-31T01:30:04;99688.19;;;17.41;95.82
28628;BME280;15815;46.760;19.604;2023-08-31T01:32:31;99694.97;;;17.35;95.14
28628;BME280;15815;46.760;19.604;2023-08-31T01:34:57;99683.28;;;17.33;95.79
28628;BME280;15815;46.760;19.604;2023-08-31T01:37:59;99700.66;;;17.35;95.24
28628;BME280;15815;46.760;19.604;2023-08-31T01:43:02;99696.69;;;17.32;97.52
28628;BME280;15815;46.760;19.604;2023-08-31T01:45:29;99703.81;;;17.37;96.71
28628;BME280;15815;46.760;19.604;2023-08-31T01:47:57;99703.31;;;17.29;94.71
28628;BME280;15815;46.760;19.604;2023-08-31T01:50:22;99699.22;;;17.30;95.04
28628;BME280;15815;46.760;19.604;2023-08-31T01:52:48;99709.34;;;17.40;99.01
28628;BME280;15815;46.760;19.604;2023-08-31T01:55:13;99681.84;;;17.28;95.69
28628;BME280;15815;46.760;19.604;2023-08-31T01:57:39;99703.00;;;17.36;97.67
28628;BME280;15815;46.760;19.604;2023-08-31T02:00:05;99708.72;;;17.45;100.00
28628;BME280;15815;46.760;19.604;2023-08-31T02:02:31;99703.69;;;17.49;100.00
28628;BME280;15815;46.760;19.604;2023-08-31T02:04:57;99711.75;;;17.51;99.60
28628;BME280;15815;46.760;19.604;2023-08-31T02:07:22;99713.44;;;17.39;97.03
28628;BME280;15815;46.760;19.604;2023-08-31T02:09:48;99699.53;;;17.32;96.32
28628;BME280;15815;46.760;19.604;2023-08-31T02:12:13;99685.97;;;17.36;100.00
28628;BME280;15815;46.760;19.604;2023-08-31T02:14:39;99688.19;;;17.41;99.41
28628;BME280;15815;46.760;19.604;2023-08-31T02:17:04;99712.03;;;17.44;96.45
28628;BME280;15815;46.760;19.604;2023-08-31T02:19:30;99697.50;;;17.42;98.91
28628;BME280;15815;46.760;19.604;2023-08-31T02:21:55;99709.13;;;17.56;98.86
28628;BME280;15815;46.760;19.604;2023-08-31T02:24:21;99692.06;;;17.56;99.69
28628;BME280;15815;46.760;19.604;2023-08-31T02:26:48;99701.97;;;17.52;96.77
28628;BME280;15815;46.760;19.604;2023-08-31T02:29:13;99701.69;;;17.59;97.86
28628;BME280;15815;46.760;19.604;2023-08-31T02:31:39;99704.38;;;17.53;96.64
28628;BME280;15815;46.760;19.604;2023-08-31T02:34:05;99704.22;;;17.57;97.97
28628;BME280;15815;46.760;19.604;2023-08-31T02:36:30;99696.16;;;17.55;97.41
28628;BME280;15815;46.760;19.604;2023-08-31T02:38:56;99697.59;;;17.60;99.56
28628;BME280;15815;46.760;19.604;2023-08-31T02:41:22;99699.50;;;17.63;98.45
28628;BME280;15815;46.760;19.604;2023-08-31T02:43:50;99695.38;;;17.55;97.07
28628;BME280;15815;46.760;19.604;2023-08-31T02:49:00;99699.81;;;17.56;97.83
28628;BME280;15815;46.760;19.604;2023-08-31T02:51:25;99699.34;;;17.57;98.03
28628;BME280;15815;46.760;19.604;2023-08-31T02:53:51;99692.06;;;17.56;100.00
28628;BME280;15815;46.760;19.604;2023-08-31T02:56:16;99709.75;;;17.60;97.43
28628;BME280;15815;46.760;19.604;2023-08-31T02:58:42;99700.28;;;17.54;97.40
28628;BME280;15815;46.760;19.604;2023-08-31T03:01:09;99708.44;;;17.52;96.75
28628;BME280;15815;46.760;19.604;2023-08-31T03:03:35;99709.13;;;17.56;97.40
28628;BME280;15815;46.760;19.604;2023-08-31T03:06:00;99694.59;;;17.64;100.00
28628;BME280;15815;46.760;19.604;2023-08-31T03:08:26;99700.63;;;17.66;99.39
28628;BME280;15815;46.760;19.604;2023-08-31T03:10:51;99686.38;;;17.56;97.60
28628;BME280;15815;46.760;19.604;2023-08-31T03:13:17;99711.72;;;17.73;99.96
28628;BME280;15815;46.760;19.604;2023-08-31T03:15:45;99702.88;;;17.71;99.70
28628;BME280;15815;46.760;19.604;2023-08-31T03:18:11;99702.53;;;17.69;99.54
28628;BME280;15815;46.760;19.604;2023-08-31T03:20:36;99696.50;;;17.67;100.00
28628;BME280;15815;46.760;19.604;2023-08-31T03:23:02;99706.19;;;17.69;98.77
28628;BME280;15815;46.760;19.604;2023-08-31T03:25:27;99699.81;;;17.65;99.31
28628;BME280;15815;46.760;19.604;2023-08-31T03:27:54;99701.41;;;17.66;99.13
28628;BME280;15815;46.760;19.604;2023-08-31T03:30:19;99712.34;;;17.68;99.52
28628;BME280;15815;46.760;19.604;2023-08-31T03:32:45;99718.03;;;17.77;100.00
28628;BME280;15815;46.760;19.604;2023-08-31T03:35:10;99721.81;;;17.74;99.89
28628;BME280;15815;46.760;19.604;2023-08-31T03:37:36;99714.72;;;17.69;98.90
28628;BME280;15815;46.760;19.604;2023-08-31T03:40:01;99710.47;;;17.74;100.00
28628;BME280;15815;46.760;19.604;2023-08-31T03:42:27;99706.66;;;17.68;100.00
28628;BME280;15815;46.760;19.604;2023-08-31T03:44:52;99720.56;;;17.75;99.82
28628;BME280;15815;46.760;19.604;2023-08-31T03:47:18;99716.31;;;17.79;100.00
28628;BME280;15815;46.760;19.604;2023-08-31T03:49:46;99718.19;;;17.73;100.00
28628;BME280;15815;46.760;19.604;2023-08-31T03:52:12;99706.31;;;17.66;100.00
28628;BME280;15815;46.760;19.604;2023-08-31T03:54:37;99731.94;;;17.75;99.50
28628;BME280;15815;46.760;19.604;2023-08-31T03:57:03;99717.34;;;17.64;98.84
28628;BME280;15815;46.760;19.604;2023-08-31T03:59:28;99705.94;;;17.54;98.29
28628;BME280;15815;46.760;19.604;2023-08-31T04:01:54;99735.16;;;17.55;100.00
28628;BME280;15815;46.760;19.604;2023-08-31T04:04:19;99740.41;;;17.66;100.00
28628;BME280;15815;46.760;19.604;2023-08-31T04:06:45;99723.31;;;17.56;100.00
28628;BME280;15815;46.760;19.604;2023-08-31T04:09:10;99746.63;;;17.73;100.00
28628;BME280;15815;46.760;19.604;2023-08-31T04:11:36;99743.59;;;17.68;100.00
28628;BME280;15815;46.760;19.604;2023-08-31T04:14:01;99754.66;;;17.75;99.63
28628;BME280;15815;46.760;19.604;2023-08-31T04:16:27;99756.06;;;17.70;99.97
28628;BME280;15815;46.760;19.604;2023-08-31T04:18:54;99755.94;;;17.74;100.00
28628;BME280;15815;46.760;19.604;2023-08-31T04:21:20;99741.88;;;17.70;99.37
28628;BME280;15815;46.760;19.604;2023-08-31T04:23:45;99751.78;;;17.66;99.18
28628;BME280;15815;46.760;19.604;2023-08-31T04:26:12;99756.81;;;17.61;98.09
28628;BME280;15815;46.760;19.604;2023-08-31T04:28:39;99768.25;;;17.80;99.30
28628;BME280;15815;46.760;19.604;2023-08-31T04:31:05;99772.38;;;17.79;99.65
28628;BME280;15815;46.760;19.604;2023-08-31T04:33:31;99772.50;;;17.75;98.41
28628;BME280;15815;46.760;19.604;2023-08-31T04:35:56;99761.56;;;17.65;98.19
28628;BME280;15815;46.760;19.604;2023-08-31T04:38:22;99773.72;;;17.65;98.95
28628;BME280;15815;46.760;19.604;2023-08-31T04:40:47;99778.59;;;17.65;97.82
28628;BME280;15815;46.760;19.604;2023-08-31T04:43:13;99772.44;;;17.66;98.96
28628;BME280;15815;46.760;19.604;2023-08-31T04:45:38;99782.59;;;17.67;98.26
28628;BME280;15815;46.760;19.604;2023-08-31T04:48:04;99797.25;;;17.66;98.46
28628;BME280;15815;46.760;19.604;2023-08-31T04:50:30;99795.72;;;17.74;99.35
28628;BME280;15815;46.760;19.604;2023-08-31T04:52:56;99807.41;;;17.76;97.90
28628;BME280;15815;46.760;19.604;2023-08-31T04:55:21;99810.25;;;17.76;98.52
28628;BME280;15815;46.760;19.604;2023-08-31T04:57:47;99817.59;;;17.86;98.05
28628;BME280;15815;46.760;19.604;2023-08-31T05:00:13;99816.66;;;17.89;97.46
28628;BME280;15815;46.760;19.604;2023-08-31T05:02:38;99817.16;;;17.97;96.82
28628;BME280;15815;46.760;19.604;2023-08-31T05:05:05;99818.25;;;17.99;96.59
28628;BME280;15815;46.760;19.604;2023-08-31T05:07:31;99815.59;;;18.05;98.40
28628;BME280;15815;46.760;19.604;2023-08-31T05:09:58;99825.28;;;18.16;98.00
28628;BME280;15815;46.760;19.604;2023-08-31T05:12:24;99833.81;;;18.16;97.35
28628;BME280;15815;46.760;19.604;2023-08-31T05:14:49;99818.31;;;18.08;95.56
28628;BME280;15815;46.760;19.604;2023-08-31T05:17:15;99833.84;;;18.26;97.25
28628;BME280;15815;46.760;19.604;2023-08-31T05:19:41;99832.97;;;18.38;97.71
28628;BME280;15815;46.760;19.604;2023-08-31T05:22:07;99817.75;;;18.32;95.62
28628;BME280;15815;46.760;19.604;2023-08-31T05:24:32;99817.16;;;18.46;96.71
28628;BME280;15815;46.760;19.604;2023-08-31T05:26:58;99839.63;;;18.53;97.21
28628;BME280;15815;46.760;19.604;2023-08-31T05:29:23;99848.47;;;18.55;94.75
28628;BME280;15815;46.760;19.604;2023-08-31T05:31:49;99835.66;;;18.60;95.67
28628;BME280;15815;46.760;19.604;2023-08-31T05:34:17;99836.94;;;18.59;96.40
28628;BME280;15815;46.760;19.604;2023-08-31T05:36:45;99848.22;;;18.71;97.23
28628;BME280;15815;46.760;19.604;2023-08-31T05:39:12;99846.81;;;18.67;95.48
28628;BME280;15815;46.760;19.604;2023-08-31T05:41:40;99848.88;;;18.75;96.88
28628;BME280;15815;46.760;19.604;2023-08-31T05:44:07;99844.44;;;18.65;95.79
28628;BME280;15815;46.760;19.604;2023-08-31T05:46:36;99849.97;;;18.69;94.13
28628;BME280;15815;46.760;19.604;2023-08-31T05:49:01;99852.50;;;18.85;95.63
28628;BME280;15815;46.760;19.604;2023-08-31T05:51:27;99865.31;;;18.90;95.47
28628;BME280;15815;46.760;19.604;2023-08-31T05:53:52;99852.81;;;18.87;92.35
28628;BME280;15815;46.760;19.604;2023-08-31T05:56:19;99872.19;;;18.61;91.80
28628;BME280;15815;46.760;19.604;2023-08-31T05:58:45;99857.41;;;18.84;93.29
28628;BME280;15815;46.760;19.604;2023-08-31T06:01:10;99866.31;;;18.96;91.75
28628;BME280;15815;46.760;19.604;2023-08-31T06:03:36;99874.06;;;19.13;95.00
28628;BME280;15815;46.760;19.604;2023-08-31T06:06:02;99881.34;;;19.14;92.93
28628;BME280;15815;46.760;19.604;2023-08-31T06:08:27;99877.22;;;19.15;92.72
28628;BME280;15815;46.760;19.604;2023-08-31T06:10:53;99879.59;;;19.26;92.89
28628;BME280;15815;46.760;19.604;2023-08-31T06:13:18;99880.88;;;19.25;92.51
28628;BME280;15815;46.760;19.604;2023-08-31T06:15:44;99873.44;;;19.19;91.44
28628;BME280;15815;46.760;19.604;2023-08-31T06:18:09;99873.28;;;19.31;89.09
28628;BME280;15815;46.760;19.604;2023-08-31T06:20:35;99878.47;;;19.42;88.61
28628;BME280;15815;46.760;19.604;2023-08-31T06:23:04;99884.94;;;19.88;93.16
28628;BME280;15815;46.760;19.604;2023-08-31T06:25:29;99888.56;;;20.73;92.82
28628;BME280;15815;46.760;19.604;2023-08-31T06:27:55;99886.69;;;20.70;93.10
28628;BME280;15815;46.760;19.604;2023-08-31T06:30:20;99904.03;;;20.90;95.69
28628;BME280;15815;46.760;19.604;2023-08-31T06:32:47;99904.25;;;20.78;93.77
28628;BME280;15815;46.760;19.604;2023-08-31T06:35:13;99912.03;;;21.01;95.33
28628;BME280;15815;46.760;19.604;2023-08-31T06:37:39;99910.53;;;20.91;91.68
28628;BME280;15815;46.760;19.604;2023-08-31T06:40:09;99911.66;;;21.08;95.96
28628;BME280;15815;46.760;19.604;2023-08-31T06:42:39;99914.13;;;21.01;87.53
28628;BME280;15815;46.760;19.604;2023-08-31T06:45:07;99909.50;;;21.03;93.00
28628;BME280;15815;46.760;19.604;2023-08-31T06:47:33;99918.50;;;20.87;89.56
28628;BME280;15815;46.760;19.604;2023-08-31T06:49:58;99925.81;;;20.79;90.36
28628;BME280;15815;46.760;19.604;2023-08-31T06:55:00;99920.63;;;21.01;88.46
28628;BME280;15815;46.760;19.604;2023-08-31T06:57:27;99920.63;;;21.01;88.07
28628;BME280;15815;46.760;19.604;2023-08-31T06:59:54;99931.50;;;21.12;86.03
28628;BME280;15815;46.760;19.604;2023-08-31T07:02:19;99928.84;;;21.32;84.05
28628;BME280;15815;46.760;19.604;2023-08-31T07:04:45;99918.38;;;21.29;87.12
28628;BME280;15815;46.760;19.604;2023-08-31T07:07:11;99918.53;;;21.49;87.93
28628;BME280;15815;46.760;19.604;2023-08-31T07:09:37;99920.63;;;21.64;88.79
28628;BME280;15815;46.760;19.604;2023-08-31T07:12:07;99934.66;;;21.76;86.43
28628;BME280;15815;46.760;19.604;2023-08-31T07:14:33;99926.91;;;21.92;84.37
28628;BME280;15815;46.760;19.604;2023-08-31T07:17:00;99933.13;;;22.05;85.83
28628;BME280;15815;46.760;19.604;2023-08-31T07:19:25;99935.91;;;22.14;84.12
28628;BME280;15815;46.760;19.604;2023-08-31T07:21:51;99945.94;;;22.54;87.05
28628;BME280;15815;46.760;19.604;2023-08-31T07:24:16;99948.47;;;22.81;87.77
28628;BME280;15815;46.760;19.604;2023-08-31T07:26:42;99950.22;;;22.93;87.20
28628;BME280;15815;46.760;19.604;2023-08-31T07:29:07;99960.63;;;23.11;87.02
28628;BME280;15815;46.760;19.604;2023-08-31T07:31:33;99963.00;;;23.53;89.70
28628;BME280;15815;46.760;19.604;2023-08-31T07:33:58;99967.91;;;23.67;85.30
28628;BME280;15815;46.760;19.604;2023-08-31T07:36:25;99963.19;;;23.64;82.17
28628;BME280;15815;46.760;19.604;2023-08-31T07:38:50;99963.50;;;23.92;92.53
28628;BME280;15815;46.760;19.604;2023-08-31T07:41:16;99972.25;;;24.09;81.06
28628;BME280;15815;46.760;19.604;2023-08-31T07:43:43;99967.94;;;24.45;90.13
28628;BME280;15815;46.760;19.604;2023-08-31T07:46:09;99966.06;;;24.68;90.51
28628;BME280;15815;46.760;19.604;2023-08-31T07:48:34;99967.22;;;25.24;87.90
28628;BME280;15815;46.760;19.604;2023-08-31T07:50:59;99973.13;;;26.40;74.34
28628;BME280;15815;46.760;19.604;2023-08-31T07:53:25;99968.66;;;26.72;81.18
28628;BME280;15815;46.760;19.604;2023-08-31T07:55:54;99964.94;;;27.22;66.90
28628;BME280;15815;46.760;19.604;2023-08-31T07:58:21;99966.03;;;28.24;66.76
28628;BME280;15815;46.760;19.604;2023-08-31T08:00:47;99960.59;;;28.80;79.51
28628;BME280;15815;46.760;19.604;2023-08-31T08:03:12;99961.06;;;28.90;76.54
28628;BME280;15815;46.760;19.604;2023-08-31T08:05:39;99974.69;;;29.19;82.61
28628;BME280;15815;46.760;19.604;2023-08-31T08:08:05;99983.94;;;28.88;83.16
28628;BME280;15815;46.760;19.604;2023-08-31T08:10:30;99976.09;;;28.53;78.57
28628;BME280;15815;46.760;19.604;2023-08-31T08:12:56;99986.03;;;28.57;67.32
28628;BME280;15815;46.760;19.604;2023-08-31T08:15:21;99988.44;;;29.13;80.84
28628;BME280;15815;46.760;19.604;2023-08-31T08:17:47;99986.88;;;28.52;68.08
28628;BME280;15815;46.760;19.604;2023-08-31T08:20:12;100003.31;;;28.33;68.56
28628;BME280;15815;46.760;19.604;2023-08-31T08:22:41;99991.34;;;28.07;70.22
28628;BME280;15815;46.760;19.604;2023-08-31T08:25:07;100011.75;;;28.20;68.76
28628;BME280;15815;46.760;19.604;2023-08-31T08:27:33;100004.00;;;28.45;72.42
28628;BME280;15815;46.760;19.604;2023-08-31T08:29:59;100010.34;;;28.38;62.09
28628;BME280;15815;46.760;19.604;2023-08-31T08:32:25;100007.16;;;28.41;69.37
28628;BME280;15815;46.760;19.604;2023-08-31T08:34:51;100010.63;;;28.70;76.22
28628;BME280;15815;46.760;19.604;2023-08-31T08:37:20;100006.28;;;28.57;71.37
28628;BME280;15815;46.760;19.604;2023-08-31T08:39:51;100013.78;;;28.36;59.13
28628;BME280;15815;46.760;19.604;2023-08-31T08:42:18;100014.28;;;28.40;68.23
28628;BME280;15815;46.760;19.604;2023-08-31T08:44:44;100017.00;;;28.27;53.09
28628;BME280;15815;46.760;19.604;2023-08-31T08:47:11;100031.22;;;28.25;71.80
28628;BME280;15815;46.760;19.604;2023-08-31T08:49:37;100024.91;;;27.63;59.22
28628;BME280;15815;46.760;19.604;2023-08-31T08:52:03;100030.16;;;27.53;52.78
28628;BME280;15815;46.760;19.604;2023-08-31T08:54:30;100029.91;;;27.51;64.24
28628;BME280;15815;46.760;19.604;2023-08-31T08:56:56;100027.75;;;27.74;55.89
28628;BME280;15815;46.760;19.604;2023-08-31T08:59:24;100032.34;;;26.97;56.54
28628;BME280;15815;46.760;19.604;2023-08-31T09:01:51;100032.28;;;27.36;63.35
28628;BME280;15815;46.760;19.604;2023-08-31T09:04:17;100029.94;;;27.46;57.92
28628;BME280;15815;46.760;19.604;2023-08-31T09:06:43;100030.66;;;27.57;56.96
28628;BME280;15815;46.760;19.604;2023-08-31T09:09:09;100030.00;;;27.98;67.68
28628;BME280;15815;46.760;19.604;2023-08-31T09:11:38;100036.06;;;27.94;64.13
28628;BME280;15815;46.760;19.604;2023-08-31T09:14:17;100026.75;;;27.55;51.38
28628;BME280;15815;46.760;19.604;2023-08-31T09:16:47;100035.78;;;27.92;53.70
28628;BME280;15815;46.760;19.604;2023-08-31T09:19:20;100041.66;;;27.76;60.52
28628;BME280;15815;46.760;19.604;2023-08-31T09:21:50;100041.88;;;29.37;63.28
28628;BME280;15815;46.760;19.604;2023-08-31T09:24:16;100042.19;;;30.38;64.94
28628;BME280;15815;46.760;19.604;2023-08-31T09:26:57;100050.16;;;31.34;53.39
28628;BME280;15815;46.760;19.604;2023-08-31T09:29:23;100038.72;;;32.28;57.72
28628;BME280;15815;46.760;19.604;2023-08-31T09:31:50;100049.03;;;32.16;52.43
28628;BME280;15815;46.760;19.604;2023-08-31T09:34:17;100046.41;;;33.36;56.62
28628;BME280;15815;46.760;19.604;2023-08-31T09:36:43;100053.75;;;32.53;40.82
28628;BME280;15815;46.760;19.604;2023-08-31T09:39:10;100051.47;;;32.59;51.75
28628;BME280;15815;46.760;19.604;2023-08-31T09:41:52;100045.50;;;33.20;62.60
28628;BME280;15815;46.760;19.604;2023-08-31T09:44:18;100051.88;;;33.39;57.90
28628;BME280;15815;46.760;19.604;2023-08-31T09:46:45;100057.69;;;33.39;46.26
28628;BME280;15815;46.760;19.604;2023-08-31T09:49:13;100061.19;;;33.38;49.03
28628;BME280;15815;46.760;19.604;2023-08-31T09:51:42;100057.13;;;32.78;47.52
28628;BME280;15815;46.760;19.604;2023-08-31T09:54:09;100057.50;;;33.94;53.51
28628;BME280;15815;46.760;19.604;2023-08-31T09:56:40;100060.38;;;34.82;53.41
28628;BME280;15815;46.760;19.604;2023-08-31T09:59:07;100062.56;;;35.12;51.16
28628;BME280;15815;46.760;19.604;2023-08-31T10:01:33;100058.78;;;34.22;49.01
28628;BME280;15815;46.760;19.604;2023-08-31T10:03:59;100061.34;;;33.61;55.22
28628;BME280;15815;46.760;19.604;2023-08-31T10:06:28;100065.09;;;33.69;47.63
28628;BME280;15815;46.760;19.604;2023-08-31T10:08:55;100077.31;;;33.67;50.19
28628;BME280;15815;46.760;19.604;2023-08-31T10:11:24;100070.72;;;33.38;51.83
28628;BME280;15815;46.760;19.604;2023-08-31T10:13:50;100069.00;;;33.01;45.91
28628;BME280;15815;46.760;19.604;2023-08-31T10:16:16;100070.34;;;32.45;49.09
28628;BME280;15815;46.760;19.604;2023-08-31T10:18:42;100074.28;;;32.21;47.99
28628;BME280;15815;46.760;19.604;2023-08-31T10:21:08;100073.00;;;31.83;42.17
28628;BME280;15815;46.760;19.604;2023-08-31T10:23:43;100075.56;;;31.86;42.65
28628;BME280;15815;46.760;19.604;2023-08-31T10:26:09;100066.56;;;32.24;46.31
28628;BME280;15815;46.760;19.604;2023-08-31T10:28:39;100068.69;;;32.23;41.79
28628;BME280;15815;46.760;19.604;2023-08-31T10:31:10;100079.44;;;32.28;46.36
28628;BME280;15815;46.760;19.604;2023-08-31T10:34:04;100080.34;;;32.10;46.28
28628;BME280;15815;46.760;19.604;2023-08-31T10:36:40;100076.81;;;32.85;50.78
28628;BME280;15815;46.760;19.604;2023-08-31T10:39:16;100071.75;;;32.65;50.01
28628;BME280;15815;46.760;19.604;2023-08-31T10:41:52;100080.78;;;32.41;42.58
28628;BME280;15815;46.760;19.604;2023-08-31T10:44:19;100082.72;;;32.59;51.78
28628;BME280;15815;46.760;19.604;2023-08-31T10:46:45;100081.53;;;32.88;39.90
28628;BME280;15815;46.760;19.604;2023-08-31T10:51:48;100087.66;;;32.85;46.23
28628;BME280;15815;46.760;19.604;2023-08-31T10:54:24;100081.09;;;33.05;49.35
28628;BME280;15815;46.760;19.604;2023-08-31T10:59:26;100084.13;;;32.18;41.86
28628;BME280;15815;46.760;19.604;2023-08-31T11:01:59;100084.00;;;32.24;44.39
28628;BME280;15815;46.760;19.604;2023-08-31T11:04:26;100091.41;;;31.98;44.69
28628;BME280;15815;46.760;19.604;2023-08-31T11:07:28;100093.09;;;31.94;40.25
28628;BME280;15815;46.760;19.604;2023-08-31T11:10:15;100091.09;;;31.76;42.00
28628;BME280;15815;46.760;19.604;2023-08-31T11:12:42;100080.97;;;31.37;46.05
28628;BME280;15815;46.760;19.604;2023-08-31T11:15:11;100075.84;;;31.30;46.43
28628;BME280;15815;46.760;19.604;2023-08-31T11:17:37;100093.78;;;31.74;47.25
28628;BME280;15815;46.760;19.604;2023-08-31T11:20:07;100074.66;;;31.91;43.93
28628;BME280;15815;46.760;19.604;2023-08-31T11:22:32;100074.88;;;31.93;47.15
28628;BME280;15815;46.760;19.604;2023-08-31T11:24:58;100085.97;;;31.82;45.43
28628;BME280;15815;46.760;19.604;2023-08-31T11:27:24;100088.09;;;32.08;42.77
28628;BME280;15815;46.760;19.604;2023-08-31T11:29:50;100092.75;;;31.58;43.36
28628;BME280;15815;46.760;19.604;2023-08-31T11:32:15;100085.34;;;31.30;45.32
28628;BME280;15815;46.760;19.604;2023-08-31T11:34:43;100086.47;;;31.09;42.05
28628;BME280;15815;46.760;19.604;2023-08-31T11:37:10;100101.66;;;31.15;40.30
28628;BME280;15815;46.760;19.604;2023-08-31T11:39:38;100088.78;;;30.97;47.77
28628;BME280;15815;46.760;19.604;2023-08-31T11:42:04;100064.84;;;30.78;39.82
28628;BME280;15815;46.760;19.604;2023-08-31T11:44:30;100081.34;;;31.15;43.76
28628;BME280;15815;46.760;19.604;2023-08-31T11:46:56;100082.00;;;31.08;51.44
28628;BME280;15815;46.760;19.604;2023-08-31T11:49:21;100083.22;;;31.31;46.85
28628;BME280;15815;46.760;19.604;2023-08-31T11:51:49;100095.34;;;31.16;45.91
28628;BME280;15815;46.760;19.604;2023-08-31T11:54:16;100084.31;;;31.28;44.27
28628;BME280;15815;46.760;19.604;2023-08-31T11:56:46;100096.19;;;31.43;51.58
28628;BME280;15815;46.760;19.604;2023-08-31T11:59:14;100092.31;;;30.90;48.20
28628;BME280;15815;46.760;19.604;2023-08-31T12:01:45;100090.88;;;30.27;44.02
28628;BME280;15815;46.760;19.604;2023-08-31T12:04:12;100089.59;;;30.03;47.78
28628;BME280;15815;46.760;19.604;2023-08-31T12:06:39;100089.47;;;29.90;43.67
28628;BME280;15815;46.760;19.604;2023-08-31T12:09:08;100095.81;;;29.64;45.57
28628;BME280;15815;46.760;19.604;2023-08-31T12:11:33;100085.44;;;29.50;43.35
28628;BME280;15815;46.760;19.604;2023-08-31T12:14:00;100096.06;;;29.91;45.84
28628;BME280;15815;46.760;19.604;2023-08-31T12:16:32;100099.56;;;30.45;53.83
28628;BME280;15815;46.760;19.604;2023-08-31T12:18:59;100097.50;;;30.03;48.23
28628;BME280;15815;46.760;19.604;2023-08-31T12:21:24;100101.41;;;30.05;48.14
28628;BME280;15815;46.760;19.604;2023-08-31T12:23:50;100096.16;;;29.79;50.63
28628;BME280;15815;46.760;19.604;2023-08-31T12:26:16;100103.97;;;29.90;50.95
28628;BME280;15815;46.760;19.604;2023-08-31T12:28:42;100099.69;;;29.72;44.95
28628;BME280;15815;46.760;19.604;2023-08-31T12:31:07;100098.72;;;29.64;42.36
28628;BME280;15815;46.760;19.604;2023-08-31T12:33:33;100102.66;;;29.37;44.46
28628;BME280;15815;46.760;19.604;2023-08-31T12:35:59;100104.50;;;29.64;53.65
28628;BME280;15815;46.760;19.604;2023-08-31T12:38:24;100104.06;;;29.79;47.65
28628;BME280;15815;46.760;19.604;2023-08-31T12:40:50;100095.84;;;29.83;48.45
28628;BME280;15815;46.760;19.604;2023-08-31T12:43:18;100111.34;;;29.67;49.08
28628;BME280;15815;46.760;19.604;2023-08-31T12:45:44;100106.56;;;29.69;50.60
28628;BME280;15815;46.760;19.604;2023-08-31T12:48:09;100112.91;;;29.68;55.30
28628;BME280;15815;46.760;19.604;2023-08-31T12:50:35;100106.09;;;29.65;47.55
28628;BME280;15815;46.760;19.604;2023-08-31T12:53:00;100101.47;;;29.51;50.78
28628;BME280;15815;46.760;19.604;2023-08-31T12:55:26;100119.72;;;29.10;nan
28628;BME280;15815;46.760;19.604;2023-08-31T12:57:51;100116.19;;;29.23;47.99
28628;BME280;15815;46.760;19.604;2023-08-31T13:00:17;100118.94;;;29.10;49.69
28628;BME280;15815;46.760;19.604;2023-08-31T13:02:43;100124.78;;;29.04;48.73